createdAt,value
2022-11-17T00:01:25.884Z,51.67
2022-11-17T00:03:54.324Z,52.06
2022-11-17T00:06:22.906Z,51.63
2022-11-17T00:08:53.440Z,51.72
2022-11-17T00:11:23.233Z,52.04
2022-11-17T00:14:09.484Z,51.66
2022-11-17T00:16:37.924Z,51.96
2022-11-17T00:19:23.795Z,51.84
2022-11-17T00:21:53.631Z,52.07
2022-11-17T00:24:23.677Z,51.65
2022-11-17T00:27:02.610Z,51.70
2022-11-17T00:29:31.921Z,51.84
2022-11-17T00:32:17.745Z,51.90
2022-11-17T00:34:46.160Z,51.63
2022-11-17T00:37:16.633Z,51.73
2022-11-17T00:39:45.044Z,51.95
2022-11-17T00:42:14.793Z,52.00
2022-11-17T00:44:43.248Z,51.90
2022-11-17T00:47:11.808Z,51.78
2022-11-17T00:49:40.218Z,51.78
2022-11-17T00:52:08.692Z,51.67
2022-11-17T00:54:37.336Z,51.88
2022-11-17T00:57:06.004Z,51.93
2022-11-17T00:59:35.748Z,51.99
2022-11-17T01:02:04.191Z,51.98
2022-11-17T01:04:32.604Z,52.05
2022-11-17T01:07:01.092Z,51.61
2022-11-17T01:09:29.618Z,51.67
2022-11-17T01:11:58.052Z,51.58
2022-11-17T01:14:29.139Z,51.79
2022-11-17T01:16:59.407Z,51.89
2022-11-17T01:19:27.882Z,51.71
2022-11-17T01:21:56.339Z,51.75
2022-11-17T01:24:24.762Z,51.74
2022-11-17T01:26:53.423Z,51.83
2022-11-17T01:29:21.931Z,51.67
2022-11-17T01:31:52.031Z,51.87
2022-11-17T01:34:21.875Z,51.81
2022-11-17T01:37:07.653Z,51.60
2022-11-17T01:39:36.126Z,51.39
2022-11-17T01:42:06.100Z,51.91
2022-11-17T01:45:05.829Z,51.41
2022-11-17T01:47:40.540Z,51.77
2022-11-17T01:50:18.742Z,51.47
2022-11-17T01:52:50.094Z,51.89
2022-11-17T01:55:22.117Z,51.68
2022-11-17T01:57:54.093Z,51.51
2022-11-17T02:00:23.033Z,51.69
2022-11-17T02:02:54.499Z,51.28
2022-11-17T02:05:35.432Z,51.45
2022-11-17T02:08:06.805Z,51.35
2022-11-17T02:10:36.842Z,51.62
2022-11-17T02:13:05.887Z,51.60
2022-11-17T02:15:34.358Z,51.42
2022-11-17T02:18:03.784Z,51.35
2022-11-17T02:20:45.093Z,51.58
2022-11-17T02:23:58.484Z,51.28
2022-11-17T02:26:51.692Z,51.74
2022-11-17T02:29:29.739Z,51.57
2022-11-17T02:32:05.783Z,51.60
2022-11-17T02:34:43.503Z,51.34
2022-11-17T02:37:21.612Z,51.37
2022-11-17T02:39:58.561Z,51.46
2022-11-17T02:42:45.617Z,51.46
2022-11-17T02:45:22.176Z,51.60
2022-11-17T02:47:54.437Z,51.31
2022-11-17T02:50:28.591Z,51.70
2022-11-17T02:52:57.529Z,51.30
2022-11-17T02:55:27.583Z,51.37
2022-11-17T02:57:56.023Z,51.63
2022-11-17T03:00:28.032Z,51.38
2022-11-17T03:03:18.731Z,51.47
2022-11-17T03:05:58.385Z,51.27
2022-11-17T03:08:33.602Z,51.19
2022-11-17T03:11:04.587Z,51.22
2022-11-17T03:13:44.175Z,51.42
2022-11-17T03:16:26.121Z,51.24
2022-11-17T03:19:03.294Z,51.54
2022-11-17T03:21:37.795Z,51.68
2022-11-17T03:24:12.723Z,51.16
2022-11-17T03:26:46.040Z,51.35
2022-11-17T03:29:18.599Z,51.25
2022-11-17T03:31:53.343Z,51.33
2022-11-17T03:34:25.619Z,51.23
2022-11-17T03:36:59.467Z,51.49
2022-11-17T03:39:33.118Z,51.47
2022-11-17T03:42:06.081Z,51.51
2022-11-17T03:44:38.254Z,51.29
2022-11-17T03:47:13.575Z,51.38
2022-11-17T03:49:47.232Z,51.20
2022-11-17T03:52:16.083Z,51.42
2022-11-17T03:54:44.630Z,51.06
2022-11-17T03:57:16.649Z,51.25
2022-11-17T03:59:53.962Z,51.44
2022-11-17T04:02:25.818Z,51.34
2022-11-17T04:05:09.216Z,51.52
2022-11-17T04:07:41.093Z,51.37
2022-11-17T04:10:11.733Z,51.13
2022-11-17T04:13:12.404Z,51.25
2022-11-17T04:15:59.165Z,51.23
2022-11-17T04:18:29.166Z,51.51
2022-11-17T04:20:58.639Z,51.01
2022-11-17T04:23:28.026Z,51.42
2022-11-17T04:26:15.159Z,51.13
2022-11-17T04:28:45.744Z,51.36
2022-11-17T04:31:15.976Z,51.40
2022-11-17T04:33:47.361Z,51.32
2022-11-17T04:36:17.960Z,51.32
2022-11-17T04:38:48.264Z,51.16
2022-11-17T04:41:35.833Z,51.04
2022-11-17T04:44:06.562Z,51.10
2022-11-17T04:46:36.770Z,51.38
2022-11-17T04:49:07.503Z,51.04
2022-11-17T04:51:36.751Z,51.30
2022-11-17T04:54:06.855Z,51.35
2022-11-17T04:56:35.419Z,51.47
2022-11-17T04:59:04.550Z,51.13
2022-11-17T05:01:33.495Z,51.11
2022-11-17T05:04:03.596Z,51.29
2022-11-17T05:06:35.316Z,51.01
2022-11-17T05:09:07.635Z,51.14
2022-11-17T05:11:54.070Z,50.93
2022-11-17T05:14:24.263Z,51.25
2022-11-17T05:17:11.650Z,51.24
2022-11-17T05:19:42.015Z,51.29
2022-11-17T05:22:27.501Z,50.95
2022-11-17T05:24:56.096Z,51.31
2022-11-17T05:27:25.906Z,51.37
2022-11-17T05:29:54.820Z,51.07
2022-11-17T05:32:23.251Z,51.15
2022-11-17T05:34:51.632Z,50.93
2022-11-17T05:37:21.395Z,50.99
2022-11-17T05:39:49.814Z,51.00
2022-11-17T05:42:18.330Z,51.35
2022-11-17T05:44:48.318Z,51.30
2022-11-17T05:47:16.914Z,50.91
2022-11-17T05:49:45.343Z,51.27
2022-11-17T05:52:13.964Z,50.97
2022-11-17T05:54:43.744Z,51.26
2022-11-17T05:57:15.787Z,50.83
2022-11-17T05:59:47.676Z,50.95
2022-11-17T06:02:19.817Z,51.18
2022-11-17T06:04:50.718Z,51.11
2022-11-17T06:07:19.566Z,50.94
2022-11-17T06:09:49.347Z,51.08
2022-11-17T06:12:17.786Z,51.03
2022-11-17T06:14:46.236Z,50.95
2022-11-17T06:17:22.686Z,51.19
2022-11-17T06:19:56.512Z,50.92
2022-11-17T06:22:26.592Z,50.85
2022-11-17T06:24:57.230Z,50.77
2022-11-17T06:27:26.759Z,51.12
2022-11-17T06:29:58.764Z,50.80
2022-11-17T06:32:29.029Z,50.76
2022-11-17T06:34:58.016Z,50.87
2022-11-17T06:37:26.440Z,50.91
2022-11-17T06:39:56.167Z,50.86
2022-11-17T06:42:44.791Z,50.84
2022-11-17T06:45:13.539Z,51.06
2022-11-17T06:47:41.967Z,50.76
2022-11-17T06:50:11.209Z,51.00
2022-11-17T06:52:39.826Z,50.78
2022-11-17T06:55:10.362Z,50.81
2022-11-17T06:57:38.766Z,51.07
2022-11-17T07:00:08.597Z,50.94
2022-11-17T07:02:37.758Z,50.69
2022-11-17T07:05:06.823Z,51.26
2022-11-17T07:07:35.507Z,50.76
2022-11-17T07:10:04.115Z,51.20
2022-11-17T07:12:34.161Z,50.66
2022-11-17T07:15:02.666Z,51.23
2022-11-17T07:17:32.934Z,50.84
2022-11-17T07:20:01.458Z,50.86
2022-11-17T07:22:29.880Z,50.67
2022-11-17T07:24:58.398Z,50.65
2022-11-17T07:27:26.900Z,50.95
2022-11-17T07:29:56.745Z,51.80
2022-11-17T07:32:25.749Z,52.18
2022-11-17T07:34:54.188Z,52.45
2022-11-17T07:37:22.696Z,52.20
2022-11-17T07:39:51.161Z,52.24
2022-11-17T07:42:19.645Z,52.23
2022-11-17T07:44:55.965Z,52.37
2022-11-17T07:47:24.417Z,52.06
2022-11-17T07:49:52.900Z,52.37
2022-11-17T07:52:21.435Z,52.37
2022-11-17T07:54:49.943Z,51.89
2022-11-17T07:57:18.404Z,52.32
2022-11-17T07:59:47.023Z,52.51
2022-11-17T08:02:16.816Z,51.88
2022-11-17T08:04:45.325Z,52.08
2022-11-17T08:07:13.802Z,52.27
2022-11-17T08:09:42.356Z,51.80
2022-11-17T08:12:10.807Z,52.03
2022-11-17T08:14:39.320Z,52.02
2022-11-17T08:17:07.757Z,51.59
2022-11-17T08:19:37.615Z,51.84
2022-11-17T08:22:06.102Z,50.96
2022-11-17T08:24:34.589Z,50.75
2022-11-17T08:27:03.189Z,50.91
2022-11-17T08:29:31.683Z,50.65
2022-11-17T08:32:00.094Z,51.20
2022-11-17T08:34:28.679Z,51.24
2022-11-17T08:36:58.578Z,51.56
2022-11-17T08:39:27.100Z,52.13
2022-11-17T08:41:55.549Z,52.53
2022-11-17T08:44:24.022Z,52.33
2022-11-17T08:46:52.544Z,52.60
2022-11-17T08:49:21.009Z,52.54
2022-11-17T08:51:49.463Z,51.42
2022-11-17T08:54:19.382Z,50.96
2022-11-17T08:56:47.907Z,49.72
2022-11-17T08:59:16.497Z,48.64
2022-11-17T09:01:45.005Z,49.02
2022-11-17T09:04:13.528Z,49.60
2022-11-17T09:06:41.961Z,49.97
2022-11-17T09:09:10.457Z,50.67
2022-11-17T09:11:40.353Z,51.51
2022-11-17T09:14:08.898Z,51.73
2022-11-17T09:16:37.418Z,51.50
2022-11-17T09:19:06.830Z,51.75
2022-11-17T09:21:35.263Z,51.94
2022-11-17T09:24:03.717Z,52.02
2022-11-17T09:26:32.414Z,52.18
2022-11-17T09:29:03.799Z,52.22
2022-11-17T09:31:32.347Z,51.84
2022-11-17T09:34:04.901Z,52.17
2022-11-17T09:36:34.719Z,52.07
2022-11-17T09:39:03.154Z,52.21
2022-11-17T09:41:36.767Z,51.79
2022-11-17T09:44:16.496Z,51.95
2022-11-17T09:46:57.547Z,52.00
2022-11-17T09:49:35.734Z,52.32
2022-11-17T09:52:11.681Z,52.29
2022-11-17T09:54:44.701Z,52.07
2022-11-17T09:57:22.838Z,52.19
2022-11-17T10:00:04.693Z,52.26
2022-11-17T10:02:34.327Z,52.59
2022-11-17T10:05:02.988Z,52.03
2022-11-17T10:07:35.299Z,52.12
2022-11-17T10:10:06.909Z,52.51
2022-11-17T10:12:43.886Z,52.12
2022-11-17T10:15:26.565Z,52.17
2022-11-17T10:17:54.997Z,51.95
2022-11-17T10:20:23.864Z,52.32
2022-11-17T10:22:54.650Z,52.04
2022-11-17T10:25:38.602Z,51.76
2022-11-17T10:28:09.861Z,51.24
2022-11-17T10:30:39.637Z,50.56
2022-11-17T10:33:08.160Z,48.99
2022-11-17T10:35:37.306Z,48.40
2022-11-17T10:38:14.410Z,47.94
2022-11-17T10:40:49.567Z,47.23
2022-11-17T10:43:24.191Z,47.36
2022-11-17T10:45:56.360Z,46.80
2022-11-17T10:48:29.995Z,46.66
2022-11-17T10:51:05.744Z,46.20
2022-11-17T10:53:44.833Z,46.34
2022-11-17T10:56:16.876Z,45.68
2022-11-17T10:59:04.837Z,46.44
2022-11-17T11:01:36.586Z,45.48
2022-11-17T11:04:07.068Z,45.07
2022-11-17T11:06:36.243Z,45.26
2022-11-17T11:09:10.673Z,45.24
2022-11-17T11:11:45.006Z,44.38
2022-11-17T11:14:19.341Z,44.47
2022-11-17T11:16:51.258Z,44.04
2022-11-17T11:19:21.445Z,43.81
2022-11-17T11:22:19.836Z,43.86
2022-11-17T11:24:56.040Z,44.54
2022-11-17T11:27:49.405Z,44.80
2022-11-17T11:30:19.595Z,45.14
2022-11-17T11:33:02.844Z,45.84
2022-11-17T11:35:51.513Z,46.02
2022-11-17T11:38:36.561Z,46.36
2022-11-17T11:41:27.337Z,46.40
2022-11-17T11:44:14.425Z,46.51
2022-11-17T11:46:54.195Z,46.33
2022-11-17T11:49:34.021Z,46.63
2022-11-17T11:52:06.372Z,46.40
2022-11-17T11:54:40.763Z,46.35
2022-11-17T11:57:15.376Z,46.14
2022-11-17T11:59:53.334Z,45.39
2022-11-17T12:02:30.104Z,45.25
2022-11-17T12:05:16.394Z,45.37
2022-11-17T12:07:49.527Z,44.92
2022-11-17T12:10:28.916Z,44.67
2022-11-17T12:12:58.269Z,44.96
2022-11-17T12:15:35.469Z,44.78
2022-11-17T12:18:13.418Z,44.67
2022-11-17T12:20:55.681Z,44.18
2022-11-17T12:23:44.460Z,44.43
2022-11-17T12:26:23.245Z,44.70
2022-11-17T12:29:24.815Z,44.48
2022-11-17T12:31:54.281Z,45.64
2022-11-17T12:34:26.244Z,44.12
2022-11-17T12:37:21.757Z,44.63
2022-11-17T12:39:58.462Z,44.07
2022-11-17T12:42:27.457Z,43.98
2022-11-17T12:45:10.323Z,43.88
2022-11-17T12:47:40.553Z,44.04
2022-11-17T12:50:41.342Z,44.08
2022-11-17T12:53:33.273Z,44.17
2022-11-17T12:56:42.206Z,43.76
2022-11-17T12:59:29.484Z,44.75
2022-11-17T13:02:05.565Z,44.93
2022-11-17T13:04:38.284Z,44.85
2022-11-17T13:07:08.729Z,45.04
2022-11-17T13:09:38.560Z,45.10
2022-11-17T13:12:08.616Z,44.96
2022-11-17T13:14:52.172Z,44.28
2022-11-17T13:17:22.880Z,43.61
2022-11-17T13:19:59.536Z,43.96
2022-11-17T13:22:28.073Z,42.68
2022-11-17T13:24:58.153Z,42.59
2022-11-17T13:27:28.585Z,43.08
2022-11-17T13:30:14.220Z,42.23
2022-11-17T13:32:43.428Z,42.31
2022-11-17T13:35:24.081Z,41.73
2022-11-17T13:38:03.323Z,42.05
2022-11-17T13:40:35.561Z,42.36
2022-11-17T13:43:05.207Z,44.20
2022-11-17T13:45:33.969Z,43.29
2022-11-17T13:48:02.462Z,41.90
2022-11-17T13:50:37.957Z,42.29
2022-11-17T13:53:22.594Z,43.84
2022-11-17T13:55:53.505Z,43.94
2022-11-17T13:58:27.646Z,43.08
2022-11-17T14:00:58.280Z,43.25
2022-11-17T14:03:37.579Z,43.33
2022-11-17T14:06:08.041Z,43.44
2022-11-17T14:08:37.665Z,41.44
2022-11-17T14:11:14.301Z,40.13
2022-11-17T14:13:45.417Z,39.47
2022-11-17T14:16:23.451Z,41.33
2022-11-17T14:19:01.425Z,41.54
2022-11-17T14:21:30.716Z,41.12
2022-11-17T14:24:05.684Z,41.92
2022-11-17T14:26:35.569Z,42.51
2022-11-17T14:29:04.074Z,45.50
2022-11-17T14:31:33.236Z,46.41
2022-11-17T14:34:01.786Z,46.66
2022-11-17T14:36:31.988Z,46.19
2022-11-17T14:39:02.181Z,46.22
2022-11-17T14:41:30.734Z,46.32
2022-11-17T14:44:00.616Z,46.35
2022-11-17T14:46:29.119Z,46.15
2022-11-17T14:48:57.596Z,46.49
2022-11-17T14:51:26.142Z,46.51
2022-11-17T14:53:55.143Z,46.38
2022-11-17T14:56:24.893Z,46.74
2022-11-17T14:58:58.291Z,46.92
2022-11-17T15:01:31.034Z,47.22
2022-11-17T15:04:27.048Z,47.42
2022-11-17T15:06:49.836Z,47.23
2022-11-17T15:09:20.379Z,47.61
2022-11-17T15:11:48.965Z,47.50
2022-11-17T15:14:17.932Z,47.37
2022-11-17T15:16:48.278Z,47.25
2022-11-17T15:19:16.961Z,47.40
2022-11-17T15:21:45.451Z,47.17
2022-11-17T15:24:14.386Z,46.78
2022-11-17T15:26:43.194Z,46.93
2022-11-17T15:29:15.173Z,47.08
2022-11-17T15:31:44.472Z,46.81
2022-11-17T15:34:19.989Z,47.32
2022-11-17T15:36:49.041Z,47.55
2022-11-17T15:39:18.377Z,47.60
2022-11-17T15:41:48.758Z,47.69
2022-11-17T15:44:18.635Z,48.87
2022-11-17T15:46:47.973Z,49.11
2022-11-17T15:49:18.463Z,49.49
2022-11-17T15:51:47.810Z,49.98
2022-11-17T15:54:20.351Z,50.03
2022-11-17T15:56:50.832Z,49.98
2022-11-17T15:59:19.773Z,50.06
2022-11-17T16:01:48.724Z,49.18
2022-11-17T16:04:18.558Z,49.12
2022-11-17T16:06:47.705Z,49.16
2022-11-17T16:09:17.110Z,49.08
2022-11-17T16:11:46.149Z,48.94
2022-11-17T16:14:15.289Z,48.80
2022-11-17T16:16:45.905Z,49.17
2022-11-17T16:19:14.879Z,49.00
2022-11-17T16:21:44.946Z,49.37
2022-11-17T16:24:13.496Z,48.87
2022-11-17T16:26:42.148Z,48.90
2022-11-17T16:29:10.820Z,49.15
2022-11-17T16:31:39.818Z,48.89
2022-11-17T16:34:12.592Z,48.99
2022-11-17T16:36:42.935Z,48.84
2022-11-17T16:39:14.715Z,49.03
2022-11-17T16:41:46.290Z,49.36
2022-11-17T16:44:16.410Z,49.29
2022-11-17T16:46:46.770Z,49.20
2022-11-17T16:49:17.365Z,49.09
2022-11-17T16:51:48.404Z,49.09
2022-11-17T16:54:19.098Z,49.28
2022-11-17T16:56:47.530Z,49.07
2022-11-17T16:59:16.819Z,48.78
2022-11-17T17:01:45.604Z,49.00
2022-11-17T17:04:14.168Z,48.74
2022-11-17T17:06:44.554Z,48.76
2022-11-17T17:09:15.633Z,48.72
2022-11-17T17:11:45.773Z,49.09
2022-11-17T17:14:15.842Z,49.10
2022-11-17T17:16:44.481Z,49.12
2022-11-17T17:19:14.928Z,48.85
2022-11-17T17:21:44.312Z,49.08
2022-11-17T17:24:12.973Z,48.84
2022-11-17T17:26:41.763Z,48.30
2022-11-17T17:29:12.551Z,48.23
2022-11-17T17:31:43.167Z,48.23
2022-11-17T17:34:13.797Z,48.10
2022-11-17T17:36:42.371Z,48.13
2022-11-17T17:39:15.376Z,48.08
2022-11-17T17:41:45.816Z,48.45
2022-11-17T17:44:18.379Z,48.16
2022-11-17T17:46:48.301Z,48.31
2022-11-17T17:49:18.846Z,48.26
2022-11-17T17:51:48.091Z,48.62
2022-11-17T17:54:18.749Z,48.34
2022-11-17T17:56:47.694Z,48.06
2022-11-17T17:59:18.244Z,48.08
2022-11-17T18:01:47.999Z,48.35
2022-11-17T18:04:17.166Z,48.21
2022-11-17T18:06:47.872Z,48.13
2022-11-17T18:09:19.321Z,48.20
2022-11-17T18:11:50.015Z,48.13
2022-11-17T18:14:24.326Z,48.44
2022-11-17T18:16:53.498Z,48.23
2022-11-17T18:19:22.131Z,48.44
2022-11-17T18:21:50.840Z,48.53
2022-11-17T18:24:19.534Z,48.13
2022-11-17T18:26:48.087Z,48.47
2022-11-17T18:29:19.602Z,48.60
2022-11-17T18:31:50.532Z,48.66
2022-11-17T18:34:21.704Z,49.07
2022-11-17T18:36:50.643Z,49.42
2022-11-17T18:39:19.386Z,50.15
2022-11-17T18:41:48.515Z,49.99
2022-11-17T18:44:19.348Z,50.64
2022-11-17T18:46:49.309Z,50.46
2022-11-17T18:49:18.072Z,50.16
2022-11-17T18:51:46.864Z,50.38
2022-11-17T18:54:15.341Z,50.18
2022-11-17T18:56:44.523Z,50.22
2022-11-17T18:59:13.442Z,50.71
2022-11-17T19:01:43.543Z,50.52
2022-11-17T19:04:15.658Z,50.73
2022-11-17T19:06:44.238Z,50.85
2022-11-17T19:09:13.440Z,50.73
2022-11-17T19:11:42.296Z,50.57
2022-11-17T19:14:10.839Z,50.94
2022-11-17T19:16:44.013Z,50.75
2022-11-17T19:19:15.499Z,50.71
2022-11-17T19:21:44.580Z,50.72
2022-11-17T19:24:13.258Z,50.78
2022-11-17T19:26:42.733Z,51.12
2022-11-17T19:29:16.711Z,51.16
2022-11-17T19:31:46.585Z,51.19
2022-11-17T19:34:16.680Z,51.24
2022-11-17T19:36:45.508Z,50.91
2022-11-17T19:39:15.217Z,50.95
2022-11-17T19:41:45.056Z,51.06
2022-11-17T19:44:13.810Z,51.02
2022-11-17T19:46:43.151Z,50.91
2022-11-17T19:49:12.568Z,50.71
2022-11-17T19:51:42.441Z,50.77
2022-11-17T19:54:13.526Z,51.14
2022-11-17T19:56:42.164Z,51.57
2022-11-17T19:59:15.778Z,51.17
2022-11-17T20:01:46.208Z,51.49
2022-11-17T20:04:14.849Z,51.78
2022-11-17T20:06:44.937Z,51.25
2022-11-17T20:09:15.509Z,51.21
2022-11-17T20:11:44.512Z,51.32
2022-11-17T20:14:14.347Z,51.63
2022-11-17T20:16:42.890Z,51.67
2022-11-17T20:19:12.249Z,51.47
2022-11-17T20:21:40.825Z,51.15
2022-11-17T20:24:11.041Z,51.45
2022-11-17T20:26:40.953Z,51.65
2022-11-17T20:29:09.731Z,51.69
2022-11-17T20:31:38.257Z,51.67
2022-11-17T20:34:06.866Z,51.36
2022-11-17T20:36:35.709Z,51.14
2022-11-17T20:39:06.248Z,51.51
2022-11-17T20:41:36.185Z,51.86
2022-11-17T20:44:05.114Z,51.53
2022-11-17T20:46:33.812Z,52.08
2022-11-17T20:49:02.535Z,51.83
2022-11-17T20:51:32.218Z,51.87
2022-11-17T20:54:00.781Z,51.55
2022-11-17T20:56:29.238Z,51.80
2022-11-17T20:58:59.041Z,51.45
2022-11-17T21:01:27.788Z,51.11
2022-11-17T21:03:56.389Z,51.17
2022-11-17T21:06:24.894Z,51.32
2022-11-17T21:08:53.914Z,50.75
2022-11-17T21:11:41.345Z,50.76
2022-11-17T21:14:12.973Z,50.61
2022-11-17T21:16:44.354Z,50.74
2022-11-17T21:19:12.877Z,50.59
2022-11-17T21:21:41.383Z,50.73
2022-11-17T21:24:10.368Z,50.24
2022-11-17T21:26:38.994Z,50.66
2022-11-17T21:29:07.477Z,50.57
2022-11-17T21:31:37.348Z,49.99
2022-11-17T21:34:07.350Z,50.44
2022-11-17T21:36:36.661Z,50.04
2022-11-17T21:39:05.666Z,50.34
2022-11-17T21:41:35.711Z,50.05
2022-11-17T21:44:04.857Z,50.23
2022-11-17T21:46:36.102Z,50.31
2022-11-17T21:49:06.157Z,49.99
2022-11-17T21:51:38.546Z,50.00
2022-11-17T21:54:09.690Z,50.08
2022-11-17T21:56:38.560Z,50.02
2022-11-17T21:59:11.030Z,50.04
2022-11-17T22:01:40.026Z,49.90
2022-11-17T22:04:10.122Z,50.02
2022-11-17T22:06:39.617Z,49.76
2022-11-17T22:09:08.191Z,50.01
2022-11-17T22:11:37.528Z,49.67
2022-11-17T22:14:08.761Z,49.68
2022-11-17T22:16:38.060Z,49.44
2022-11-17T22:19:07.856Z,49.58
2022-11-17T22:21:38.209Z,49.37
2022-11-17T22:24:09.188Z,49.79
2022-11-17T22:26:38.652Z,49.44
2022-11-17T22:29:08.555Z,49.39
2022-11-17T22:31:37.068Z,49.77
2022-11-17T22:34:05.636Z,49.49
2022-11-17T22:36:34.242Z,49.55
2022-11-17T22:39:04.601Z,49.71
2022-11-17T22:41:33.206Z,49.47
2022-11-17T22:44:01.845Z,49.46
2022-11-17T22:46:30.545Z,49.39
2022-11-17T22:48:59.588Z,49.35
2022-11-17T22:51:45.657Z,49.54
2022-11-17T22:54:15.502Z,49.15
2022-11-17T22:56:44.027Z,48.61
2022-11-17T22:59:12.474Z,48.56
2022-11-17T23:01:40.986Z,48.85
2022-11-17T23:04:09.851Z,48.81
2022-11-17T23:06:38.394Z,48.88
2022-11-17T23:09:06.980Z,49.10
2022-11-17T23:11:38.392Z,49.27
2022-11-17T23:14:08.571Z,49.27
2022-11-17T23:16:37.427Z,49.17
2022-11-17T23:19:07.137Z,49.41
2022-11-17T23:21:35.594Z,49.21
2022-11-17T23:24:05.269Z,49.02
2022-11-17T23:26:33.750Z,49.31
2022-11-17T23:29:03.594Z,49.20
2022-11-17T23:31:32.118Z,49.21
2022-11-17T23:34:00.606Z,49.26
2022-11-17T23:36:29.165Z,49.01
2022-11-17T23:38:57.794Z,49.30
2022-11-17T23:41:26.437Z,49.32
2022-11-17T23:43:55.305Z,49.30
2022-11-17T23:46:27.256Z,49.26
2022-11-17T23:48:56.157Z,48.98
2022-11-17T23:51:26.671Z,49.32
2022-11-17T23:53:55.130Z,49.08
2022-11-17T23:56:23.586Z,49.27
2022-11-17T23:58:52.393Z,48.95
